Terminal Aerodrome Forecast
Issued by NWS Northern Indiana

Home | Current Version | Previous Version | Text Only | Print | Product List | Glossary On
Versions: 1 2 3 4 5 6 7 8 9 10 11 12 13 14 15
000
FTUS43 KIWX 262332
TAFFWA
TAF
KFWA 262332Z 2700/2724 18010KT P6SM VCSH BKN040 OVC070
      TEMPO 2700/2702 3SM SHRA OVC025
     FM270200 23006KT P6SM OVC040
     FM270500 24005KT 6SM BR OVC025
     FM271100 23005KT 3SM BR BKN008 OVC015
     FM271800 20007KT P6SM BKN035=

USA.gov is the U.S. government's official web portal to all federal, state and local government web resources and services.